Data for 04/26/2007

Time Sea-Level Adjusted Pressure Absolute Pressure Temperature Relative Humidity Dew Point   
(mb) (inHg) (mb) (inHg) (C) (F) (%) (C) (F)
00:05 1017 30.03 846 24.98 4.6 40.3 86 2.5 36.6
00:10 1017 30.03 846 24.98 4.7 40.5 88 3 37.3
00:15 1017 30.03 846 24.98 4.9 40.8 88 3 37.4
00:20 1017 30.03 846 24.98 4.7 40.4 87 2.6 36.7
00:25 1017 30.03 846 24.98 4.7 40.5 88 2.9 37.2
00:30 1017 30.03 846 24.98 4.8 40.6 88 2.9 37.3
00:35 1017 30.03 846 24.98 4.6 40.3 89 2.9 37.3
00:40 1017 30.03 846 24.98 4.5 40.1 91 3.1 37.6
00:45 1017 30.03 846 24.98 4.6 40.2 91 3.2 37.8
00:50 1017 30.03 846 24.98 4.6 40.2 90 3 37.5
00:55 1017 30.03 846 24.98 4.5 40.1 90 3 37.5
01:00 1017 30.03 846 24.98 4.5 40.1 89 2.9 37.2
01:05 1017 30.03 846 24.98 4.4 39.9 91 3 37.4
01:10 1017 30.03 846 24.98 4.4 39.9 91 3.1 37.5
01:15 1017 30.03 846 24.98 4.5 40 92 3.2 37.8
01:20 1017 30.03 846 24.98 4.5 40.2 91 3.1 37.6
01:25 1017 30.03 846 24.98 4.5 40.1 92 3.3 37.9
01:30 1017 30.03 846 24.98 4.3 39.8 92 3.2 37.8
01:35 1017 30.03 846 24.98 4.3 39.7 93 3.2 37.8
01:40 1017 30.03 846 24.98 4.3 39.8 93 3.3 37.9
01:45 1017 30.03 846 24.98 4.4 39.9 92 3.2 37.8
01:50 1017 30.03 846 24.98 4.5 40.1 92 3.3 38
01:55 1017 30.03 846 24.98 4.5 40.1 91 3.2 37.8
02:00 1017 30.03 846 24.98 4.6 40.3 91 3.2 37.8
02:05 1017 30.03 846 24.98 4.6 40.3 92 3.4 38.1
02:10 1017 30.03 846 24.98 4.5 40.2 93 3.5 38.3
02:15 1017 30.03 846 24.98 4.5 40.1 94 3.5 38.4
02:20 1017 30.03 846 24.98 4.5 40.2 93 3.5 38.3
02:25 1017 30.03 846 24.98 4.6 40.3 91 3.2 37.8
02:30 1017 30.03 846 24.98 4.7 40.5 92 3.5 38.2
02:35 1017 30.03 846 24.98 4.6 40.3 91 3.4 38
02:40 1017 30.03 846 24.98 4.8 40.6 89 3.2 37.7
02:45 1017 30.03 846 24.98 4.9 40.9 90 3.4 38.1
02:50 1017 30.03 846 24.98 5 41 90 3.5 38.4
02:55 1017 30.03 846 24.98 5.1 41.2 89 3.5 38.4
03:00 1017 30.03 846 24.98 5.2 41.4 91 3.8 38.9
03:05 1017 30.03 846 24.98 5.3 41.6 91 3.9 39
03:10 1017 30.03 846 24.98 5.4 41.8 91 4.1 39.3
03:15 1017 30.03 846 24.98 5.4 41.8 91 4.1 39.3
03:20 1017 30.03 846 24.98 5.5 41.9 92 4.2 39.6
03:25 1017 30.03 846 24.98 5.5 42 92 4.3 39.7
03:30 1017 30.03 846 24.98 5.6 42.1 89 4 39.2
03:35 1017 30.03 846 24.98 5.7 42.3 90 4.1 39.4
03:40 1017 30.03 846 24.98 5.7 42.2 90 4.2 39.6
03:45 1017 30.03 846 24.98 6 42.7 89 4.3 39.8
03:50 1017 30.03 846 24.98 5.9 42.7 90 4.4 40
03:55 1017 30.03 846 24.98 5.8 42.4 91 4.4 39.9
04:00 1017 30.03 846 24.98 5.7 42.3 88 4 39.1
04:05 1017 30.03 846 24.98 5.6 42.2 87 3.6 38.6
04:10 1017 30.03 846 24.98 5.7 42.2 87 3.6 38.5
04:15 1017 30.03 846 24.98 5.7 42.3 85 3.4 38.1
04:20 1017 30.03 846 24.98 5.7 42.3 85 3.4 38.2
04:25 1017 30.03 846 24.98 5.6 42.1 84 3.2 37.7
04:30 1017 30.03 846 24.98 5.6 42.1 85 3.2 37.8
04:35 1017 30.03 846 24.98 5.6 42 83 2.9 37.3
04:40 1017 30.03 846 24.98 5.7 42.2 81 2.7 36.8
04:45 1017 30.03 846 24.98 5.8 42.4 81 2.8 37.1
04:50 1017 30.03 846 24.98 5.8 42.4 82 3 37.3
04:55 1017 30.03 846 24.98 5.7 42.2 83 3 37.3
05:00 1017 30.03 846 24.98 5.8 42.4 86 3.6 38.4
05:05 1017 30.03 846 24.98 5.7 42.3 87 3.7 38.7
05:10 1017 30.03 846 24.98 5.7 42.3 86 3.6 38.5
05:15 1017 30.03 846 24.98 5.8 42.4 85 3.4 38.1
05:20 1017 30.03 846 24.98 5.8 42.4 85 3.5 38.3
05:25 1017 30.03 846 24.98 5.7 42.2 85 3.3 37.9
05:30 1017 30.03 846 24.98 5.4 41.7 86 3.3 38
05:35 1017 30.03 846 24.98 5.4 41.7 85 3.1 37.5
05:40 1017 30.03 846 24.98 5.3 41.5 87 3.2 37.8
05:45 1017 30.03 846 24.98 5.1 41.2 88 3.2 37.8
05:50 1017 30.03 846 24.98 5.1 41.1 90 3.6 38.5
05:55 1017 30.03 846 24.98 5.2 41.3 92 3.9 39.1
06:00 1017 30.03 846 24.98 5.1 41.2 91 3.8 38.9
06:05 1017 30.03 846 24.98 5.2 41.3 90 3.7 38.6
06:10 1017 30.03 846 24.98 5.2 41.4 90 3.7 38.6
06:15 1017 30.03 847 25.01 5.4 41.7 89 3.7 38.6
06:20 1017 30.03 847 25.01 5.5 41.9 88 3.6 38.5
06:25 1018 30.06 847 25.01 5.6 42.1 90 4.1 39.3
06:30 1018 30.06 847 25.01 5.5 41.9 92 4.3 39.8
06:35 1018 30.06 847 25.01 5.4 41.7 92 4.2 39.5
06:40 1018 30.06 847 25.01 5.2 41.3 91 3.9 38.9
06:45 1018 30.06 847 25.01 5 41 92 3.7 38.7
06:50 1018 30.06 847 25.01 4.8 40.6 91 3.4 38.2
06:55 1018 30.06 847 25.01 4.5 40 92 3.2 37.8
07:00 1018 30.06 847 25.01 4.4 39.9 92 3.3 37.9
07:05 1018 30.06 847 25.01 4.6 40.3 92 3.5 38.2
07:10 1018 30.06 847 25.01 4.7 40.5 93 3.7 38.6
07:15 1018 30.06 847 25.01 4.8 40.6 93 3.7 38.7
07:20 1018 30.06 847 25.01 4.7 40.5 92 3.6 38.5
07:25 1018 30.06 848 25.04 4.7 40.5 93 3.6 38.5
07:30 1018 30.06 848 25.04 4.7 40.4 92 3.5 38.4
07:35 1019 30.09 848 25.04 4.6 40.3 92 3.4 38.1
07:40 1019 30.09 848 25.04 4.7 40.4 92 3.5 38.3
07:45 1019 30.09 848 25.04 4.7 40.5 91 3.4 38.1
07:50 1019 30.09 848 25.04 4.7 40.5 90 3.2 37.8
07:55 1019 30.09 848 25.04 4.5 40.2 90 3.1 37.6
08:00 1019 30.09 848 25.04 4.4 40 90 2.9 37.2
08:05 1019 30.09 848 25.04 4.3 39.7 88 2.5 36.5
08:10 1019 30.09 848 25.04 4.2 39.6 88 2.4 36.3
08:15 1019 30.09 848 25.04 4 39.2 90 2.5 36.5
08:20 1019 30.09 848 25.04 4 39.3 89 2.4 36.4
08:25 1019 30.09 848 25.04 4.1 39.4 89 2.4 36.3
08:30 1019 30.09 848 25.04 4.2 39.6 90 2.7 36.9
08:35 1019 30.09 848 25.04 4.5 40.1 89 2.8 37
08:40 1019 30.09 848 25.04 4.5 40.1 85 2.3 36.1
08:45 1019 30.09 848 25.04 5 40.9 78 1.4 34.5
08:50 1019 30.09 848 25.04 5.1 41.2 81 2.1 35.8
08:55 1019 30.09 848 25.04 5.4 41.7 79 2 35.7
09:00 1019 30.09 848 25.04 5.4 41.7 79 2 35.5
09:05 1019 30.09 849 25.07 4.9 40.7 81 1.9 35.4
09:10 1019 30.09 849 25.07 4.7 40.5 81 1.7 35.1
09:15 1019 30.09 849 25.07 4.7 40.5 80 1.6 34.9
09:20 1019 30.09 849 25.07 4.5 40.1 80 1.4 34.6
09:25 1019 30.09 849 25.07 3.9 39 85 1.6 35
09:30 1019 30.09 849 25.07 3.6 38.6 86 1.5 34.8
09:35 1019 30.09 849 25.07 3.7 38.7 85 1.5 34.6
09:40 1019 30.09 848 25.04 3.8 38.9 84 1.4 34.5
09:45 1019 30.09 848 25.04 4 39.2 83 1.4 34.4
09:50 1019 30.09 849 25.07 4.3 39.8 81 1.3 34.3
09:55 1019 30.09 849 25.07 4.5 40.1 82 1.7 35
10:00 1019 30.09 849 25.07 4.5 40.1 79 1.2 34.2
10:05 1019 30.09 849 25.07 4.2 39.6 80 1.1 34
10:10 1019 30.09 849 25.07 4.5 40.1 78 1.1 34
10:15 1019 30.09 849 25.07 4.8 40.7 78 1.2 34.2
10:20 1019 30.09 849 25.07 5.1 41.1 73 0.6 33.1
10:25 1019 30.09 849 25.07 5.4 41.7 69 0.2 32.4
10:30 1019 30.09 849 25.07 5.8 42.4 69 0.6 33.1
10:35 1019 30.09 849 25.07 6.2 43.2 67 0.5 32.9
10:40 1019 30.09 849 25.07 6.5 43.7 61 -0.5 31
10:45 1019 30.09 849 25.07 6.6 44 62 -0 31.9
10:50 1019 30.09 849 25.07 6.9 44.4 59 -0.6 31
10:55 1019 30.09 849 25.07 7 44.6 59 -0.5 31.1
11:00 1019 30.09 849 25.07 7.4 45.3 56 -0.7 30.7
11:05 1019 30.09 849 25.07 7.8 46 57 -0.2 31.6
11:10 1019 30.09 849 25.07 8.4 47.2 52 -0.8 30.6
11:15 1019 30.09 849 25.07 9.3 48.7 52 0 32
11:20 1019 30.09 849 25.07 9.3 48.8 51 -0.2 31.7
11:25 1019 30.09 849 25.07 8.4 47 55 -0.1 31.8
11:30 1019 30.09 849 25.07 9 48.3 49 -1 30.3
11:35 1019 30.09 849 25.07 8.4 47.2 54 -0.4 31.4
11:40 1019 30.09 849 25.07 8 46.4 54 -0.8 30.5
11:45 1019 30.09 849 25.07 8.3 46.9 52 -1 30.1
11:50 1019 30.09 849 25.07 8.5 47.2 52 -0.7 30.7
11:55 1020 30.12 849 25.07 8.4 47 55 -0.2 31.7
12:00 1020 30.12 849 25.07 8.4 47.1 53 -0.5 31.1
12:05 1020 30.12 849 25.07 9.2 48.6 49 -0.9 30.3
12:10 1019 30.09 849 25.07 10.2 50.4 46 -0.9 30.4
12:15 1019 30.09 849 25.07 11.2 52.2 44 -0.4 31.3
12:20 1019 30.09 849 25.07 11.4 52.6 43 -0.6 30.9
12:25 1019 30.09 849 25.07 10 50 50 0.1 32.2
12:30 1019 30.09 849 25.07 9.9 49.9 47 -0.7 30.7
12:35 1019 30.09 848 25.04 10.5 50.8 43 -1.4 29.5
12:40 1019 30.09 849 25.07 10.6 51.1 44 -1 30.2
12:45 1019 30.09 848 25.04 10.5 51 45 -0.9 30.3
12:50 1019 30.09 848 25.04 10 49.9 47 -0.8 30.5
12:55 1019 30.09 848 25.04 9.8 49.6 47 -0.9 30.3
13:00 1019 30.09 848 25.04 10.8 51.4 44 -1 30.1
13:05 1019 30.09 848 25.04 11.4 52.6 42 -0.8 30.5
13:10 1019 30.09 848 25.04 11.4 52.6 43 -0.7 30.8
13:15 1019 30.09 848 25.04 12 53.6 41 -0.8 30.5
13:20 1019 30.09 848 25.04 11.9 53.3 43 -0.3 31.4
13:25 1019 30.09 848 25.04 12.2 53.9 41 -0.8 30.6
13:30 1019 30.09 848 25.04 11.8 53.3 43 -0.2 31.7
13:35 1019 30.09 848 25.04 11.7 53.1 40 -1.4 29.5
13:40 1019 30.09 848 25.04 11.9 53.5 41 -0.8 30.6
13:45 1019 30.09 848 25.04 11.9 53.5 41 -0.9 30.3
13:50 1019 30.09 848 25.04 12 53.5 42 -0.4 31.4
13:55 1019 30.09 848 25.04 12.5 54.6 37 -1.9 28.6
14:00 1019 30.09 848 25.04 12.2 53.9 35 -2.7 27.1
14:05 1019 30.09 848 25.04 11.6 52.9 42 -1 30.2
14:10 1019 30.09 848 25.04 10.5 50.8 46 -0.7 30.7
14:15 1019 30.09 848 25.04 11.1 52 43 -0.8 30.5
14:20 1019 30.09 848 25.04 12.6 54.6 38 -1.4 29.5
14:25 1019 30.09 848 25.04 13.3 55.9 36 -1.6 29.1
14:30 1019 30.09 848 25.04 13.5 56.3 33 -2.5 27.4
14:35 1019 30.09 848 25.04 13 55.3 32 -3.5 25.8
14:40 1019 30.09 848 25.04 12.8 55.1 34 -2.7 27.1
14:45 1019 30.09 848 25.04 13.4 56.1 33 -2.5 27.6
14:50 1019 30.09 848 25.04 13.5 56.4 29 -3.9 24.9
14:55 1019 30.09 848 25.04 12.8 55.1 32 -3.5 25.7
15:00 1019 30.09 848 25.04 12.7 54.9 31 -3.9 25
15:05 1018 30.06 848 25.04 12.9 55.3 30 -4.1 24.6
15:10 1018 30.06 848 25.04 13.8 56.8 29 -4.1 24.6
15:15 1018 30.06 847 25.01 14.1 57.5 28 -4.1 24.7
15:20 1018 30.06 847 25.01 13.8 56.8 30 -3.4 25.8
15:25 1018 30.06 847 25.01 13.5 56.3 29 -4.1 24.7
15:30 1018 30.06 847 25.01 13.3 56 29 -4.2 24.4
15:35 1018 30.06 847 25.01 14.1 57.3 29 -3.8 25.1
15:40 1018 30.06 847 25.01 14.5 58.1 25 -5.2 22.7
15:45 1018 30.06 847 25.01 14.2 57.5 26 -5.1 22.8
15:50 1018 30.06 847 25.01 13.1 55.5 28 -4.9 23.1
15:55 1018 30.06 847 25.01 13.4 56.1 26 -5.5 22.2
16:00 1018 30.06 847 25.01 13.9 57 26 -5.3 22.5
16:05 1018 30.06 847 25.01 14.1 57.4 27 -4.5 23.9
16:10 1018 30.06 847 25.01 14.2 57.5 28 -4.2 24.5
16:15 1018 30.06 847 25.01 14.2 57.5 27 -4.3 24.3
16:20 1018 30.06 847 25.01 14.2 57.6 26 -4.9 23.2
16:25 1018 30.06 847 25.01 14.1 57.4 27 -4.5 23.9
16:30 1018 30.06 847 25.01 14.1 57.4 28 -4 24.8
16:35 1018 30.06 847 25.01 14.1 57.4 28 -4.2 24.4
16:40 1018 30.06 847 25.01 14.3 57.7 25 -5.6 21.9
16:45 1018 30.06 847 25.01 14.1 57.3 23 -6.6 20.1
16:50 1018 30.06 847 25.01 13.9 57 24 -6.4 20.4
16:55 1018 30.06 847 25.01 13.9 57 24 -6.3 20.7
17:00 1018 30.06 847 25.01 14 57.3 24 -6.1 21
17:05 1018 30.06 847 25.01 14.3 57.7 24 -6 21.1
17:10 1018 30.06 847 25.01 14.4 57.8 24 -6 21.1
17:15 1018 30.06 847 25.01 14.2 57.5 25 -5.6 21.9
17:20 1018 30.06 847 25.01 14.2 57.6 24 -6.2 20.8
17:25 1018 30.06 847 25.01 14.3 57.8 24 -5.8 21.6
17:30 1018 30.06 847 25.01 14.1 57.4 23 -6.4 20.5
17:35 1018 30.06 847 25.01 14.2 57.5 23 -6.7 19.9
17:40 1018 30.06 847 25.01 14.1 57.4 24 -6.1 21.1
17:45 1018 30.06 847 25.01 14.1 57.4 24 -6.3 20.7
17:50 1018 30.06 847 25.01 14.1 57.4 24 -6.3 20.7
17:55 1017 30.03 847 25.01 14.4 57.8 23 -6.4 20.6
18:00 1017 30.03 847 25.01 14.2 57.6 24 -5.8 21.5
18:05 1017 30.03 847 25.01 14 57.1 24 -6.1 21
18:10 1017 30.03 847 25.01 14.2 57.5 24 -6.3 20.7
18:15 1017 30.03 847 25.01 13.9 57 24 -6.4 20.5
18:20 1017 30.03 847 25.01 13.9 57 25 -5.9 21.3
18:25 1017 30.03 847 25.01 13.9 57 25 -5.8 21.5
18:30 1018 30.06 847 25.01 13.7 56.7 26 -5.3 22.5
18:35 1018 30.06 847 25.01 13.7 56.6 26 -5.4 22.3
18:40 1018 30.06 847 25.01 13.6 56.4 26 -5.6 21.9
18:45 1018 30.06 847 25.01 13.2 55.8 26 -5.8 21.6
18:50 1018 30.06 847 25.01 13 55.3 28 -5.3 22.5
18:55 1018 30.06 847 25.01 12.9 55.3 27 -5.3 22.4
19:00 1018 30.06 847 25.01 12.8 55 27 -5.9 21.3
19:05 1018 30.06 847 25.01 12.7 54.9 28 -5.5 22.1
19:10 1018 30.06 847 25.01 12.7 54.8 28 -5.4 22.3
19:15 1018 30.06 847 25.01 12.7 54.8 27 -5.7 21.8
19:20 1018 30.06 847 25.01 12.6 54.6 28 -5.3 22.5
19:25 1018 30.06 847 25.01 12.5 54.5 28 -5.5 22.2
19:30 1018 30.06 847 25.01 12.4 54.3 29 -5.2 22.6
19:35 1018 30.06 847 25.01 12.3 54.1 29 -5.2 22.6
19:40 1018 30.06 847 25.01 12.3 54.1 30 -4.9 23.2
19:45 1018 30.06 847 25.01 12.3 54.1 30 -4.7 23.5
19:50 1018 30.06 847 25.01 12.2 53.9 30 -4.7 23.5
19:55 1018 30.06 847 25.01 12.1 53.8 31 -4.4 24.1
20:00 1018 30.06 847 25.01 12 53.6 32 -4.3 24.3
20:05 1018 30.06 847 25.01 11.9 53.4 33 -3.9 24.9
20:10 1018 30.06 847 25.01 11.8 53.2 33 -3.8 25.2
20:15 1018 30.06 847 25.01 11.8 53.2 34 -3.7 25.3
20:20 1018 30.06 847 25.01 11.7 53.1 34 -3.7 25.4
20:25 1018 30.06 847 25.01 11.6 52.8 35 -3.2 26.2
20:30 1018 30.06 847 25.01 10.9 51.7 43 -1.1 30
20:35 1018 30.06 847 25.01 9.8 49.6 48 -0.7 30.7
20:40 1018 30.06 847 25.01 9.2 48.5 51 -0.3 31.4
20:45 1018 30.06 847 25.01 8.9 48 53 -0.2 31.6
20:50 1018 30.06 847 25.01 8.6 47.4 53 -0.4 31.3
20:55 1018 30.06 847 25.01 8.5 47.2 54 -0.3 31.5
21:00 1018 30.06 847 25.01 8.4 47.1 54 -0.3 31.5
21:05 1018 30.06 847 25.01 8.2 46.8 55 -0.3 31.5
21:10 1018 30.06 847 25.01 8.1 46.5 55 -0.4 31.3
21:15 1018 30.06 847 25.01 7.8 46.1 54 -0.8 30.6
21:20 1018 30.06 847 25.01 7.8 46 56 -0.5 31.1
21:25 1018 30.06 847 25.01 7.8 46 55 -0.8 30.6
21:30 1018 30.06 847 25.01 7.7 45.9 55 -0.6 30.8
21:35 1018 30.06 847 25.01 7.6 45.7 56 -0.6 30.9
21:40 1018 30.06 847 25.01 7.3 45.2 56 -0.8 30.5
21:45 1018 30.06 847 25.01 7.1 44.8 56 -0.9 30.3
21:50 1018 30.06 847 25.01 7.2 44.9 56 -1.1 30
21:55 1018 30.06 847 25.01 7.3 45.1 56 -1 30.2
22:00 1018 30.06 847 25.01 7.1 44.8 57 -0.8 30.5
22:05 1018 30.06 847 25.01 6.8 44.3 59 -0.7 30.7
22:10 1018 30.06 847 25.01 6.7 44.1 57 -1.1 30
22:15 1018 30.06 847 25.01 6.8 44.3 55 -1.4 29.4
22:20 1018 30.06 847 25.01 7.3 45.1 54 -1.5 29.3
22:25 1018 30.06 847 25.01 7.1 44.8 55 -1.2 29.9
22:30 1018 30.06 847 25.01 6.9 44.4 55 -1.4 29.5
22:35 1018 30.06 848 25.04 6.9 44.5 54 -1.7 28.9
22:40 1018 30.06 847 25.01 7.2 45 54 -1.6 29.2
22:45 1018 30.06 847 25.01 7.2 45 55 -1.3 29.7
22:50 1018 30.06 848 25.04 6.6 43.8 61 -0.5 31.1
22:55 1018 30.06 848 25.04 5.7 42.3 61 -1.1 30
23:00 1018 30.06 848 25.04 6.4 43.4 53 -2.4 27.7
23:05 1019 30.09 848 25.04 7.2 45 50 -2.5 27.5
23:10 1019 30.09 848 25.04 7.8 46.1 48 -2.6 27.3
23:15 1019 30.09 848 25.04 8.1 46.5 47 -2.6 27.3
23:20 1019 30.09 848 25.04 7.8 46.1 52 -1.3 29.6
23:25 1019 30.09 848 25.04 7.3 45.1 54 -1.4 29.4
23:30 1019 30.09 848 25.04 7.4 45.3 52 -1.9 28.6
23:35 1019 30.09 848 25.04 7.9 46.1 49 -2.2 28
23:40 1019 30.09 848 25.04 8.1 46.6 48 -2.2 28
23:45 1019 30.09 848 25.04 8.2 46.7 47 -2.5 27.6
23:50 1019 30.09 848 25.04 8.3 46.9 47 -2.3 27.8
23:55 1019 30.09 848 25.04 8.3 47 47 -2.4 27.6
24:00 1019 30.09 848 25.04 8.5 47.2 47 -2.3 27.9